Time;durP1;ratioP1;P1;durP2;ratioP2;P2;SDS_P1;SDS_P2;PMS_P1;PMS_P2;Temp;Humidity;BMP_temperature;BMP_pressure;BME280_temperature;BME280_humidity;BME280_pressure;Samples;Min_cycle;Max_cycle;Signal;HPM_P1;HPM_P2
2022/12/02 00:00:57;;;;;;;41.88;14.75;;;;;;;;;;5025092;28;20206;-64
2022/12/02 00:03:31;;;;;;;41.08;15.65;;;;;;;;;;4937040;28;20101;-69
2022/12/02 00:06:00;;;;;;;51.85;16.42;;;;;;;;;;4932002;28;20156;-71
2022/12/02 00:08:29;;;;;;;47.28;16.58;;;;;;;;;;5006199;28;20057;-69
2022/12/02 00:10:57;;;;;;;44.67;15.88;;;;;;;;;;5030224;28;20049;-68
2022/12/02 00:13:26;;;;;;;49.25;16.38;;;;;;;;;;5026523;28;20049;-64
2022/12/02 00:15:57;;;;;;;45.67;15.88;;;;;;;;;;4988973;28;20049;-65
2022/12/02 00:18:28;;;;;;;45.50;15.82;;;;;;;;;;4967747;28;20050;-72
2022/12/02 00:20:56;;;;;;;45.97;15.18;;;;;;;;;;5032187;28;20120;-66
2022/12/02 00:23:25;;;;;;;47.67;16.45;;;;;;;;;;5000525;28;20049;-71
2022/12/02 00:25:56;;;;;;;49.80;17.02;;;;;;;;;;4993099;28;20064;-67
2022/12/02 00:28:25;;;;;;;46.53;15.70;;;;;;;;;;5022443;28;20052;-68
2022/12/02 00:30:51;;;;;;;47.55;16.83;;;;;;;;;;5035647;28;20056;-68
2022/12/02 00:33:31;;;;;;;;;;;;;;;;;;;;;
2022/12/02 00:36:02;;;;;;;49.28;17.23;;;;;;;;;;4962226;28;20052;-72
2022/12/02 00:38:34;;;;;;;51.38;16.67;;;;;;;;;;4999628;28;20163;-65
2022/12/02 00:41:02;;;;;;;52.17;15.95;;;;;;;;;;5019832;28;20056;-65
2022/12/02 00:48:59;;;;;;;51.83;16.63;;;;;;;;;;4994413;28;21213;-67
2022/12/02 00:51:25;;;;;;;;;;;;;;;;;;5020686;28;20153;-69
2022/12/02 00:53:55;;;;;;;52.05;14.38;;;;;;;;;;5022714;28;19931;-67
2022/12/02 00:56:24;;;;;;;53.50;16.25;;;;;;;;;;4999765;28;20080;-66
2022/12/02 00:58:52;;;;;;;58.10;15.85;;;;;;;;;;5032419;28;20056;-65
2022/12/02 01:01:18;;;;;;;57.45;16.33;;;;;;;;;;5011429;28;20059;-70
2022/12/02 01:03:45;;;;;;;63.65;16.83;;;;;;;;;;5037784;28;20041;-65
2022/12/02 01:06:11;;;;;;;53.28;17.27;;;;;;;;;;5018000;28;20059;-70
2022/12/02 01:08:38;;;;;;;56.38;17.75;;;;;;;;;;5040848;28;20056;-70
2022/12/02 01:11:07;;;;;;;56.15;16.85;;;;;;;;;;5028085;28;20047;-64
2022/12/02 01:13:33;;;;;;;53.70;16.20;;;;;;;;;;4999641;28;20057;-66
2022/12/02 01:16:00;;;;;;;50.65;15.57;;;;;;;;;;4979537;28;20053;-69
2022/12/02 01:18:26;;;;;;;48.03;15.45;;;;;;;;;;5023326;28;20052;-69
2022/12/02 01:20:53;;;;;;;47.50;16.40;;;;;;;;;;5012136;28;20133;-66
2022/12/02 01:23:19;;;;;;;53.90;15.95;;;;;;;;;;5029005;28;20168;-67
2022/12/02 01:25:47;;;;;;;52.55;16.73;;;;;;;;;;5025445;28;20048;-67
2022/12/02 01:28:15;;;;;;;60.25;17.23;;;;;;;;;;5023178;28;20065;-64
2022/12/02 01:30:42;;;;;;;47.25;15.77;;;;;;;;;;4984245;28;20171;-64
2022/12/02 01:33:08;;;;;;;54.17;16.45;;;;;;;;;;5016539;28;20109;-69
2022/12/02 01:35:35;;;;;;;48.58;16.05;;;;;;;;;;5008601;28;20105;-63
2022/12/02 01:38:02;;;;;;;49.63;16.00;;;;;;;;;;5015436;28;20085;-67
2022/12/02 01:40:29;;;;;;;47.80;15.23;;;;;;;;;;5037021;28;20102;-68
2022/12/02 01:42:55;;;;;;;50.95;16.15;;;;;;;;;;5016944;28;20119;-68
2022/12/02 01:45:23;;;;;;;52.38;15.55;;;;;;;;;;4999156;28;20068;-68
2022/12/02 01:47:50;;;;;;;52.13;14.07;;;;;;;;;;5029298;28;21072;-67
2022/12/02 01:50:17;;;;;;;52.00;15.63;;;;;;;;;;5037828;28;20739;-67
2022/12/02 01:52:43;;;;;;;51.20;15.45;;;;;;;;;;5047843;28;20114;-68
2022/12/02 01:55:12;;;;;;;46.78;13.95;;;;;;;;;;5036050;28;20109;-69
2022/12/02 01:57:38;;;;;;;41.05;14.40;;;;;;;;;;5013478;28;20303;-67
2022/12/02 02:00:05;;;;;;;47.45;14.40;;;;;;;;;;5039307;28;20048;-71
2022/12/02 02:02:35;;;;;;;43.58;14.25;;;;;;;;;;5019973;28;20241;-67
2022/12/02 02:05:03;;;;;;;44.67;15.15;;;;;;;;;;5034937;28;20059;-68
2022/12/02 02:07:30;;;;;;;44.30;14.40;;;;;;;;;;5028598;28;20141;-65
2022/12/02 02:09:57;;;;;;;40.78;13.80;;;;;;;;;;5016301;28;20120;-66
2022/12/02 02:12:23;;;;;;;45.20;14.85;;;;;;;;;;5043541;28;20075;-63
2022/12/02 02:14:50;;;;;;;40.22;13.75;;;;;;;;;;5036723;28;20076;-63
2022/12/02 02:17:17;;;;;;;44.60;15.13;;;;;;;;;;5010047;28;20057;-68
2022/12/02 02:19:44;;;;;;;45.50;13.68;;;;;;;;;;5011151;28;20326;-64
2022/12/02 02:22:12;;;;;;;41.70;13.75;;;;;;;;;;5025831;28;20139;-64
2022/12/02 02:24:40;;;;;;;46.90;14.32;;;;;;;;;;4999528;28;20115;-67
2022/12/02 02:27:09;;;;;;;48.43;14.47;;;;;;;;;;5022706;28;20052;-64
2022/12/02 02:29:36;;;;;;;43.03;14.02;;;;;;;;;;5030105;28;20064;-66
2022/12/02 02:32:02;;;;;;;39.10;13.35;;;;;;;;;;5019267;28;20159;-66
2022/12/02 02:34:29;;;;;;;48.17;14.73;;;;;;;;;;5022237;28;20135;-65
2022/12/02 02:36:55;;;;;;;44.40;15.10;;;;;;;;;;5034570;28;20121;-65
2022/12/02 02:39:22;;;;;;;43.30;14.45;;;;;;;;;;5000586;28;20118;-67
2022/12/02 02:41:50;;;;;;;46.40;15.20;;;;;;;;;;5038690;28;20057;-68
2022/12/02 02:44:17;;;;;;;38.63;14.13;;;;;;;;;;5017044;28;20139;-65
2022/12/02 02:46:44;;;;;;;49.40;14.40;;;;;;;;;;5018974;28;20076;-68
2022/12/02 02:49:11;;;;;;;42.95;13.77;;;;;;;;;;5013738;28;20111;-69
2022/12/02 02:51:37;;;;;;;41.70;13.95;;;;;;;;;;5012118;28;20059;-64
2022/12/02 02:54:04;;;;;;;42.88;14.00;;;;;;;;;;5031711;28;20080;-64
2022/12/02 02:56:31;;;;;;;45.08;13.77;;;;;;;;;;5017779;28;20057;-67
2022/12/02 02:58:59;;;;;;;44.15;13.90;;;;;;;;;;5031888;28;20068;-68
2022/12/02 03:01:27;;;;;;;38.53;13.10;;;;;;;;;;5027156;28;20059;-70
2022/12/02 03:03:56;;;;;;;;;;;;;;;;;;4943799;28;20082;-65
2022/12/02 03:06:23;;;;;;;36.67;11.23;;;;;;;;;;5028223;28;20003;-63
2022/12/02 03:08:50;;;;;;;40.03;13.05;;;;;;;;;;5038047;28;20078;-69
2022/12/02 03:11:19;;;;;;;35.97;12.45;;;;;;;;;;5032081;28;21112;-69
2022/12/02 03:13:46;;;;;;;35.22;11.45;;;;;;;;;;5016583;28;20060;-67
2022/12/02 03:16:15;;;;;;;38.88;12.80;;;;;;;;;;5003490;28;20057;-74
2022/12/02 03:18:43;;;;;;;39.15;12.80;;;;;;;;;;5040604;28;20072;-71
2022/12/02 03:21:10;;;;;;;41.67;12.50;;;;;;;;;;5000780;28;20363;-69
2022/12/02 03:23:36;;;;;;;46.10;13.75;;;;;;;;;;5015227;28;20125;-70
2022/12/02 03:26:04;;;;;;;41.72;13.15;;;;;;;;;;5011563;28;20234;-71
2022/12/02 03:28:32;;;;;;;38.63;13.07;;;;;;;;;;5037970;28;20054;-72
2022/12/02 03:30:58;;;;;;;35.03;12.10;;;;;;;;;;5023628;28;20087;-68
2022/12/02 03:33:27;;;;;;;37.85;11.82;;;;;;;;;;5032801;28;20060;-64
2022/12/02 03:35:54;;;;;;;36.85;12.77;;;;;;;;;;4987504;28;20053;-69
2022/12/02 03:38:20;;;;;;;37.97;12.52;;;;;;;;;;5024012;28;20084;-71
2022/12/02 03:40:47;;;;;;;34.17;12.65;;;;;;;;;;5004336;28;20045;-68
2022/12/02 03:43:13;;;;;;;36.40;13.23;;;;;;;;;;5001415;28;20057;-70
2022/12/02 03:45:42;;;;;;;35.75;12.02;;;;;;;;;;5015199;28;20136;-66
2022/12/02 03:48:09;;;;;;;35.47;11.65;;;;;;;;;;5025394;28;20053;-68
2022/12/02 03:50:37;;;;;;;38.00;12.02;;;;;;;;;;5003961;28;20092;-69
2022/12/02 03:53:04;;;;;;;35.28;10.93;;;;;;;;;;5011257;28;20099;-68
2022/12/02 03:55:30;;;;;;;37.35;12.15;;;;;;;;;;5008928;28;20045;-66
2022/12/02 03:58:02;;;;;;;34.83;12.05;;;;;;;;;;5005262;28;20060;-68
2022/12/02 04:00:29;;;;;;;30.60;10.55;;;;;;;;;;5051929;28;20072;-66
2022/12/02 04:02:56;;;;;;;35.63;11.30;;;;;;;;;;5015345;28;20187;-69
2022/12/02 04:05:23;;;;;;;33.15;11.00;;;;;;;;;;5014736;28;20158;-67
2022/12/02 04:07:51;;;;;;;32.78;10.25;;;;;;;;;;5014765;28;20045;-67
2022/12/02 04:10:17;;;;;;;27.85;10.65;;;;;;;;;;5018839;28;20049;-68
2022/12/02 04:12:44;;;;;;;29.55;10.25;;;;;;;;;;5002845;28;20053;-69
2022/12/02 04:15:10;;;;;;;34.58;11.27;;;;;;;;;;5003321;28;20269;-71
2022/12/02 04:17:37;;;;;;;32.80;10.35;;;;;;;;;;5026475;28;20056;-68
2022/12/02 04:20:04;;;;;;;31.45;10.48;;;;;;;;;;5034407;28;20084;-69
2022/12/02 04:22:31;;;;;;;27.63;9.70;;;;;;;;;;5018043;28;20135;-70
2022/12/02 04:25:01;;;;;;;36.00;10.70;;;;;;;;;;5008348;28;20080;-69
2022/12/02 04:27:27;;;;;;;29.98;8.77;;;;;;;;;;5021076;28;20156;-68
2022/12/02 04:29:54;;;;;;;34.35;9.02;;;;;;;;;;5014290;28;20057;-68
2022/12/02 04:32:20;;;;;;;24.35;8.60;;;;;;;;;;5027883;28;20130;-65
2022/12/02 04:34:47;;;;;;;25.80;8.95;;;;;;;;;;5006218;28;20059;-68
2022/12/02 04:37:13;;;;;;;26.58;8.75;;;;;;;;;;5027696;28;20246;-67
2022/12/02 04:39:40;;;;;;;25.42;8.63;;;;;;;;;;5030215;28;20088;-68
2022/12/02 04:42:08;;;;;;;26.13;8.75;;;;;;;;;;5034794;28;20410;-70
2022/12/02 04:44:34;;;;;;;31.30;9.07;;;;;;;;;;5028251;28;20141;-65
2022/12/02 04:47:00;;;;;;;26.90;9.00;;;;;;;;;;5010811;28;20052;-70
2022/12/02 04:49:27;;;;;;;24.13;8.27;;;;;;;;;;4997260;28;20118;-69
2022/12/02 04:51:53;;;;;;;25.33;7.60;;;;;;;;;;5034833;28;20060;-70
2022/12/02 04:54:20;;;;;;;26.85;8.75;;;;;;;;;;5021317;28;20094;-66
2022/12/02 04:56:46;;;;;;;26.02;8.85;;;;;;;;;;5037086;28;20076;-66
2022/12/02 04:59:14;;;;;;;24.65;8.77;;;;;;;;;;5019715;28;20045;-64
2022/12/02 05:01:41;;;;;;;22.50;7.80;;;;;;;;;;5038760;28;20064;-72
2022/12/02 05:04:07;;;;;;;23.38;8.70;;;;;;;;;;5020861;28;20057;-67
2022/12/02 05:06:33;;;;;;;23.98;7.85;;;;;;;;;;5021316;28;20126;-69
2022/12/02 05:09:00;;;;;;;24.52;7.57;;;;;;;;;;4991517;28;20064;-68
2022/12/02 05:11:26;;;;;;;23.88;9.05;;;;;;;;;;5017507;28;20064;-65
2022/12/02 05:13:53;;;;;;;23.38;7.93;;;;;;;;;;5036818;28;20137;-66
2022/12/02 05:16:21;;;;;;;23.38;7.63;;;;;;;;;;5020174;28;20511;-67
2022/12/02 05:18:47;;;;;;;27.70;8.90;;;;;;;;;;5021904;28;20071;-63
2022/12/02 05:21:14;;;;;;;26.10;8.10;;;;;;;;;;5030106;28;20053;-63
2022/12/02 05:23:40;;;;;;;26.95;7.97;;;;;;;;;;5009415;28;20057;-63
2022/12/02 05:26:07;;;;;;;20.00;7.22;;;;;;;;;;5022183;28;20145;-69
2022/12/02 05:28:33;;;;;;;20.60;7.40;;;;;;;;;;5019968;28;20056;-69
2022/12/02 05:31:00;;;;;;;24.65;7.32;;;;;;;;;;5020485;28;20076;-66
2022/12/02 05:33:28;;;;;;;24.33;7.28;;;;;;;;;;5040042;28;20060;-69
2022/12/02 05:35:54;;;;;;;23.63;7.87;;;;;;;;;;5044848;28;20061;-68
2022/12/02 05:38:21;;;;;;;26.73;7.95;;;;;;;;;;5041248;28;20101;-67
2022/12/02 05:40:47;;;;;;;23.30;7.57;;;;;;;;;;5030712;28;20153;-67
2022/12/02 05:43:16;;;;;;;26.25;7.22;;;;;;;;;;5021113;28;20065;-65
2022/12/02 05:45:42;;;;;;;22.90;7.63;;;;;;;;;;5034577;28;20061;-69
2022/12/02 05:48:11;;;;;;;20.75;7.00;;;;;;;;;;5021371;28;20080;-65
2022/12/02 05:50:38;;;;;;;21.45;6.82;;;;;;;;;;5029859;28;20049;-63
2022/12/02 05:53:06;;;;;;;23.25;6.43;;;;;;;;;;5028559;28;20057;-65
2022/12/02 05:55:34;;;;;;;28.95;8.10;;;;;;;;;;5037419;28;20139;-66
2022/12/02 05:58:02;;;;;;;20.17;7.40;;;;;;;;;;5037080;28;20063;-68
2022/12/02 06:00:30;;;;;;;20.97;6.90;;;;;;;;;;5041208;28;20079;-70
2022/12/02 06:03:00;;;;;;;20.88;6.97;;;;;;;;;;4984631;28;20308;-68
2022/12/02 06:05:27;;;;;;;25.27;6.78;;;;;;;;;;5033884;28;20052;-66
2022/12/02 06:07:57;;;;;;;20.20;7.38;;;;;;;;;;5032522;28;20114;-68
2022/12/02 06:10:25;;;;;;;22.40;7.72;;;;;;;;;;5054950;28;20056;-65
2022/12/02 06:12:53;;;;;;;26.90;7.68;;;;;;;;;;5017573;28;20083;-66
2022/12/02 06:15:19;;;;;;;20.58;7.10;;;;;;;;;;5053936;28;20056;-71
2022/12/02 06:17:46;;;;;;;23.77;7.20;;;;;;;;;;5032561;28;20056;-67
2022/12/02 06:20:15;;;;;;;22.90;7.30;;;;;;;;;;5001812;28;20111;-65
2022/12/02 06:22:42;;;;;;;19.50;6.75;;;;;;;;;;5001901;28;20064;-68
2022/12/02 06:25:23;;;;;;;24.08;6.88;;;;;;;;;;5021549;28;20056;-67
2022/12/02 06:27:50;;;;;;;19.80;7.07;;;;;;;;;;5013184;28;20072;-66
2022/12/02 06:30:17;;;;;;;17.88;6.80;;;;;;;;;;5036414;28;20068;-67
2022/12/02 06:32:46;;;;;;;24.70;7.35;;;;;;;;;;5030623;28;20110;-67
2022/12/02 06:35:19;;;;;;;23.65;6.90;;;;;;;;;;5010119;28;20179;-69
2022/12/02 06:37:45;;;;;;;20.70;7.38;;;;;;;;;;5014865;28;20243;-71
2022/12/02 06:40:20;;;;;;;19.90;6.63;;;;;;;;;;5038458;28;20061;-68
2022/12/02 06:42:47;;;;;;;21.02;7.13;;;;;;;;;;5029621;28;20056;-65
2022/12/02 06:45:20;;;;;;;26.23;7.88;;;;;;;;;;5029662;28;20359;-68
2022/12/02 06:47:48;;;;;;;19.90;6.60;;;;;;;;;;5033939;28;20056;-69
2022/12/02 06:50:35;;;;;;;20.90;7.60;;;;;;;;;;5028385;28;20045;-64
2022/12/02 06:53:07;;;;;;;18.08;7.13;;;;;;;;;;5014432;28;20048;-67
2022/12/02 06:55:36;;;;;;;21.60;7.13;;;;;;;;;;5038346;28;20151;-64
2022/12/02 06:58:15;;;;;;;24.38;7.65;;;;;;;;;;5009520;28;20049;-68
2022/12/02 07:00:42;;;;;;;20.17;6.85;;;;;;;;;;5018260;28;20056;-67
2022/12/02 07:03:12;;;;;;;19.33;7.00;;;;;;;;;;5008950;28;20068;-69
2022/12/02 07:05:39;;;;;;;22.10;7.70;;;;;;;;;;5018787;28;20060;-66
2022/12/02 07:08:07;;;;;;;20.60;7.35;;;;;;;;;;5027114;28;20060;-71
2022/12/02 07:10:35;;;;;;;19.52;6.97;;;;;;;;;;5015688;28;20152;-66
2022/12/02 07:13:03;;;;;;;22.17;7.63;;;;;;;;;;4990618;28;20052;-66
2022/12/02 07:15:30;;;;;;;20.27;6.63;;;;;;;;;;5037091;28;20045;-65
2022/12/02 07:17:57;;;;;;;21.98;7.07;;;;;;;;;;5006929;28;20378;-63
2022/12/02 07:20:29;;;;;;;21.38;7.70;;;;;;;;;;5006822;28;20057;-69
2022/12/02 07:22:56;;;;;;;21.63;7.30;;;;;;;;;;4988427;28;20053;-65
2022/12/02 07:25:36;;;;;;;20.48;7.15;;;;;;;;;;5003263;28;20064;-65
2022/12/02 07:28:09;;;;;;;20.85;7.53;;;;;;;;;;5040985;28;20057;-65
2022/12/02 07:30:37;;;;;;;19.55;7.28;;;;;;;;;;5007302;28;20060;-70
2022/12/02 07:33:04;;;;;;;17.65;6.43;;;;;;;;;;5004905;28;20061;-68
2022/12/02 07:35:31;;;;;;;21.77;7.50;;;;;;;;;;4990048;28;20061;-67
2022/12/02 07:37:57;;;;;;;21.75;7.25;;;;;;;;;;5013779;28;20111;-68
2022/12/02 07:40:24;;;;;;;21.73;7.40;;;;;;;;;;4996758;28;20068;-70
2022/12/02 07:42:53;;;;;;;22.38;7.32;;;;;;;;;;5010341;28;20049;-64
2022/12/02 07:45:20;;;;;;;21.52;6.88;;;;;;;;;;5014878;28;20054;-70
2022/12/02 07:47:46;;;;;;;23.20;7.78;;;;;;;;;;5013806;28;20579;-64
2022/12/02 07:50:13;;;;;;;21.52;6.80;;;;;;;;;;4995160;28;20060;-65
2022/12/02 07:52:40;;;;;;;21.80;7.68;;;;;;;;;;4996632;28;20177;-65
2022/12/02 07:55:07;;;;;;;21.45;7.35;;;;;;;;;;5001077;28;20056;-66
2022/12/02 07:57:34;;;;;;;17.60;8.00;;;;;;;;;;5013186;28;20053;-66
2022/12/02 08:00:02;;;;;;;22.63;7.78;;;;;;;;;;5017817;28;20060;-67
2022/12/02 08:02:29;;;;;;;21.50;7.47;;;;;;;;;;5035023;28;20068;-67
2022/12/02 08:04:55;;;;;;;23.80;7.53;;;;;;;;;;5019278;28;20060;-67
2022/12/02 08:07:22;;;;;;;21.88;7.53;;;;;;;;;;5016080;28;20052;-65
2022/12/02 08:09:48;;;;;;;20.88;7.57;;;;;;;;;;5015515;28;20159;-67
2022/12/02 08:12:15;;;;;;;22.20;7.65;;;;;;;;;;5005751;28;20127;-68
2022/12/02 08:14:42;;;;;;;23.02;8.02;;;;;;;;;;4968577;28;20044;-66
2022/12/02 08:17:10;;;;;;;19.08;6.88;;;;;;;;;;5025487;28;20045;-67
2022/12/02 08:19:36;;;;;;;26.40;7.57;;;;;;;;;;5037512;28;20044;-67
2022/12/02 08:22:03;;;;;;;18.50;7.18;;;;;;;;;;5034913;28;20060;-63
2022/12/02 08:27:13;;;;;;;20.25;7.25;;;;;;;;;;4986686;28;20070;-67
2022/12/02 08:29:39;;;;;;;22.13;8.70;;;;;;;;;;5008331;28;20075;-67
2022/12/02 08:32:08;;;;;;;21.95;7.63;;;;;;;;;;5012692;28;20059;-68
2022/12/02 08:34:35;;;;;;;22.13;7.80;;;;;;;;;;4995832;28;20049;-68
2022/12/02 08:37:02;;;;;;;23.77;8.30;;;;;;;;;;5032959;28;20056;-66
2022/12/02 08:39:28;;;;;;;22.77;7.97;;;;;;;;;;4991762;28;20306;-64
2022/12/02 08:41:55;;;;;;;25.58;7.30;;;;;;;;;;5027011;28;20138;-65
2022/12/02 08:44:24;;;;;;;18.90;7.82;;;;;;;;;;4990087;28;20068;-66
2022/12/02 08:46:51;;;;;;;20.10;7.57;;;;;;;;;;5038320;28;20056;-71
2022/12/02 08:49:24;;;;;;;21.05;7.57;;;;;;;;;;5025162;28;20061;-66
2022/12/02 08:51:53;;;;;;;25.77;7.50;;;;;;;;;;5038436;28;20056;-72
2022/12/02 08:54:20;;;;;;;21.58;8.05;;;;;;;;;;5035688;28;20084;-67
2022/12/02 08:56:48;;;;;;;22.35;8.88;;;;;;;;;;5011585;28;20076;-69
2022/12/02 08:59:16;;;;;;;28.77;7.90;;;;;;;;;;4985341;28;20230;-66
2022/12/02 09:01:42;;;;;;;22.23;8.13;;;;;;;;;;5011316;28;20060;-67
2022/12/02 09:04:09;;;;;;;21.35;8.23;;;;;;;;;;4997147;28;20049;-68
2022/12/02 09:06:35;;;;;;;25.67;8.48;;;;;;;;;;5038047;28;20060;-63
2022/12/02 09:09:03;;;;;;;20.67;8.55;;;;;;;;;;5025183;28;20130;-70
2022/12/02 09:11:30;;;;;;;21.80;9.73;;;;;;;;;;5029674;28;20110;-67
2022/12/02 09:13:59;;;;;;;27.38;10.02;;;;;;;;;;5022489;28;20076;-66
2022/12/02 09:16:26;;;;;;;29.90;9.65;;;;;;;;;;5030898;28;20111;-68
2022/12/02 09:18:56;;;;;;;28.48;9.18;;;;;;;;;;5014696;28;20057;-65
2022/12/02 09:21:23;;;;;;;25.77;10.00;;;;;;;;;;5037354;28;20053;-69
2022/12/02 09:23:49;;;;;;;26.85;9.32;;;;;;;;;;5018227;28;20137;-68
2022/12/02 09:26:20;;;;;;;24.35;9.75;;;;;;;;;;5004348;28;20053;-67
2022/12/02 09:28:49;;;;;;;26.48;9.60;;;;;;;;;;5001029;28;20143;-68
2022/12/02 09:31:19;;;;;;;28.25;9.27;;;;;;;;;;5010195;28;20192;-68
2022/12/02 09:33:46;;;;;;;26.17;9.20;;;;;;;;;;5027401;28;20075;-67
2022/12/02 09:36:12;;;;;;;31.30;10.10;;;;;;;;;;4993859;28;20084;-69
2022/12/02 09:38:39;;;;;;;26.35;9.45;;;;;;;;;;5015638;28;20268;-68
2022/12/02 09:41:05;;;;;;;28.13;8.63;;;;;;;;;;5020917;28;20071;-68
2022/12/02 09:43:36;;;;;;;26.08;9.00;;;;;;;;;;4995573;28;20057;-69
2022/12/02 09:46:04;;;;;;;31.13;9.63;;;;;;;;;;4989381;28;20076;-68
2022/12/02 09:48:30;;;;;;;29.92;9.85;;;;;;;;;;5009320;28;20119;-68
2022/12/02 09:50:57;;;;;;;27.83;8.45;;;;;;;;;;5002957;28;20061;-67
2022/12/02 09:53:25;;;;;;;24.55;9.57;;;;;;;;;;4988149;28;20175;-67
2022/12/02 09:55:52;;;;;;;25.67;9.07;;;;;;;;;;5026943;28;20156;-64
2022/12/02 09:58:20;;;;;;;26.98;8.52;;;;;;;;;;5001988;28;20057;-65
2022/12/02 10:00:51;;;;;;;31.88;9.73;;;;;;;;;;4997848;28;20262;-68
2022/12/02 10:03:17;;;;;;;27.40;9.15;;;;;;;;;;4967523;28;20067;-68
2022/12/02 10:05:46;;;;;;;25.42;9.18;;;;;;;;;;5002596;28;20052;-65
2022/12/02 10:08:18;;;;;;;24.65;9.05;;;;;;;;;;5000132;28;20140;-65
2022/12/02 10:10:46;;;;;;;24.95;8.68;;;;;;;;;;5000800;28;20069;-68
2022/12/02 10:13:14;;;;;;;30.35;9.45;;;;;;;;;;5007529;28;21327;-68
2022/12/02 10:15:41;;;;;;;23.85;8.68;;;;;;;;;;5012446;28;20044;-69
2022/12/02 10:18:12;;;;;;;22.63;8.82;;;;;;;;;;5015719;28;20085;-66
2022/12/02 10:20:39;;;;;;;24.85;8.90;;;;;;;;;;5044426;28;20063;-67
2022/12/02 10:23:08;;;;;;;23.50;8.75;;;;;;;;;;4952991;28;20058;-63
2022/12/02 10:25:34;;;;;;;25.23;9.23;;;;;;;;;;4966153;28;20056;-66
2022/12/02 10:28:01;;;;;;;32.30;10.63;;;;;;;;;;4998973;28;20109;-66
2022/12/02 10:30:28;;;;;;;24.67;9.38;;;;;;;;;;5045502;28;20095;-65
2022/12/02 10:32:59;;;;;;;25.60;8.52;;;;;;;;;;5015712;28;20056;-66
2022/12/02 10:35:27;;;;;;;25.23;9.23;;;;;;;;;;5015771;28;20114;-66
2022/12/02 10:37:54;;;;;;;30.23;9.63;;;;;;;;;;5032661;28;20076;-67
2022/12/02 10:40:21;;;;;;;25.90;8.90;;;;;;;;;;5034707;28;20052;-65
2022/12/02 10:43:06;;;;;;;28.45;9.57;;;;;;;;;;5017217;28;20052;-66
2022/12/02 10:45:37;;;;;;;29.27;8.63;;;;;;;;;;4967656;28;20052;-66
2022/12/02 10:48:13;;;;;;;28.83;9.52;;;;;;;;;;5009280;28;20056;-69
2022/12/02 10:50:43;;;;;;;28.75;9.40;;;;;;;;;;5026987;28;20077;-64
2022/12/02 10:53:13;;;;;;;29.55;8.70;;;;;;;;;;5009599;28;20053;-66
2022/12/02 10:55:45;;;;;;;27.70;9.23;;;;;;;;;;4999693;28;20087;-66
2022/12/02 10:58:13;;;;;;;28.25;9.02;;;;;;;;;;4978861;28;20498;-66
2022/12/02 11:00:46;;;;;;;29.80;9.57;;;;;;;;;;5006426;28;20060;-63
2022/12/02 11:03:12;;;;;;;31.05;9.43;;;;;;;;;;5011169;28;20277;-72
2022/12/02 11:05:41;;;;;;;32.55;9.48;;;;;;;;;;5021162;28;20052;-66
2022/12/02 11:08:16;;;;;;;25.25;9.10;;;;;;;;;;4995120;28;20049;-68
2022/12/02 11:10:43;;;;;;;27.45;8.40;;;;;;;;;;5014265;28;20084;-70
2022/12/02 11:13:31;;;;;;;30.67;8.68;;;;;;;;;;5019119;28;20297;-64
2022/12/02 11:16:15;;;;;;;23.42;9.15;;;;;;;;;;5014730;28;20060;-68
2022/12/02 11:18:57;;;;;;;24.58;8.13;;;;;;;;;;4990531;28;20057;-66
2022/12/02 11:21:35;;;;;;;29.52;9.07;;;;;;;;;;4999156;28;20052;-71
2022/12/02 11:24:23;;;;;;;25.02;9.23;;;;;;;;;;4993472;28;20073;-71
2022/12/02 11:27:13;;;;;;;32.67;9.52;;;;;;;;;;5004013;28;20052;-69
2022/12/02 11:29:43;;;;;;;23.65;9.18;;;;;;;;;;5000773;28;20091;-70
2022/12/02 11:32:40;;;;;;;30.75;8.52;;;;;;;;;;5014157;28;20057;-68
2022/12/02 11:35:13;;;;;;;24.75;8.68;;;;;;;;;;4983657;28;20059;-64
2022/12/02 11:37:42;;;;;;;27.33;9.93;;;;;;;;;;5003043;28;20053;-67
2022/12/02 11:40:27;;;;;;;29.15;8.55;;;;;;;;;;4991504;28;20057;-68
2022/12/02 11:43:19;;;;;;;28.63;8.60;;;;;;;;;;5019089;28;20060;-66
2022/12/02 11:45:58;;;;;;;26.38;9.15;;;;;;;;;;4976253;28;20049;-70
2022/12/02 11:48:27;;;;;;;29.92;9.52;;;;;;;;;;5027064;28;20059;-70
2022/12/02 11:50:54;;;;;;;;;;;;;;;;;;5027006;28;20140;-68
2022/12/02 11:53:22;;;;;;;24.60;7.38;;;;;;;;;;5007539;28;19986;-70
2022/12/02 11:55:53;;;;;;;25.00;8.25;;;;;;;;;;4994561;28;20050;-65
2022/12/02 11:58:20;;;;;;;30.33;8.48;;;;;;;;;;4979026;28;20053;-67
2022/12/02 12:01:03;;;;;;;26.88;8.82;;;;;;;;;;5008791;28;20083;-66
2022/12/02 12:03:29;;;;;;;28.02;9.05;;;;;;;;;;5030547;28;20057;-62
2022/12/02 12:06:09;;;;;;;28.67;9.57;;;;;;;;;;5033914;28;20084;-69
2022/12/02 12:08:41;;;;;;;23.13;8.30;;;;;;;;;;5038416;28;20048;-68
2022/12/02 12:11:17;;;;;;;28.63;9.48;;;;;;;;;;5004837;28;20281;-67
2022/12/02 12:14:11;;;;;;;26.92;8.85;;;;;;;;;;5002071;28;20056;-66
2022/12/02 12:16:41;;;;;;;28.60;9.18;;;;;;;;;;4973958;28;20115;-69
2022/12/02 12:19:22;;;;;;;21.65;8.57;;;;;;;;;;5002377;28;20061;-68
2022/12/02 12:21:51;;;;;;;25.90;8.35;;;;;;;;;;5017938;28;20059;-65
2022/12/02 12:24:28;;;;;;;25.58;8.63;;;;;;;;;;5010418;28;20057;-65
2022/12/02 12:26:55;;;;;;;31.02;9.15;;;;;;;;;;5021452;28;20083;-63
2022/12/02 12:29:22;;;;;;;25.90;8.30;;;;;;;;;;5014055;28;20056;-71
2022/12/02 12:31:50;;;;;;;25.25;8.55;;;;;;;;;;5048331;28;20048;-70
2022/12/02 12:34:17;;;;;;;24.67;8.55;;;;;;;;;;4981017;28;20130;-68
2022/12/02 12:36:44;;;;;;;24.92;8.15;;;;;;;;;;5023267;28;20048;-66
2022/12/02 12:39:11;;;;;;;22.70;8.35;;;;;;;;;;5020789;28;20332;-66
2022/12/02 12:41:37;;;;;;;23.35;8.38;;;;;;;;;;5017304;28;20056;-67
2022/12/02 12:44:04;;;;;;;23.40;8.30;;;;;;;;;;5029979;28;20056;-65
2022/12/02 12:46:31;;;;;;;26.40;8.05;;;;;;;;;;5002780;28;20087;-67
2022/12/02 12:48:59;;;;;;;28.95;8.30;;;;;;;;;;5030590;28;20055;-70
2022/12/02 12:51:25;;;;;;;28.37;8.37;;;;;;;;;;5011062;28;20056;-68
2022/12/02 12:53:52;;;;;;;25.45;8.30;;;;;;;;;;5005031;28;20310;-64
2022/12/02 12:56:18;;;;;;;27.50;8.63;;;;;;;;;;4992032;28;20071;-69
2022/12/02 12:58:45;;;;;;;24.95;8.50;;;;;;;;;;5034337;28;20128;-64
2022/12/02 13:01:11;;;;;;;27.88;8.18;;;;;;;;;;4997555;28;20077;-66
2022/12/02 13:03:38;;;;;;;29.15;9.10;;;;;;;;;;5010595;28;20072;-65
2022/12/02 13:06:06;;;;;;;29.55;8.38;;;;;;;;;;5037291;28;20057;-71
2022/12/02 13:08:33;;;;;;;25.60;7.85;;;;;;;;;;5037063;28;20087;-70
2022/12/02 13:10:59;;;;;;;23.98;8.68;;;;;;;;;;5025298;28;20119;-68
2022/12/02 13:13:28;;;;;;;24.33;7.43;;;;;;;;;;5005517;28;20084;-67
2022/12/02 13:15:55;;;;;;;21.73;7.18;;;;;;;;;;5026446;28;20057;-67
2022/12/02 13:18:22;;;;;;;24.42;8.55;;;;;;;;;;5048757;28;20048;-67
2022/12/02 13:20:50;;;;;;;23.13;7.90;;;;;;;;;;5019469;28;20114;-72
2022/12/02 13:23:18;;;;;;;23.75;7.28;;;;;;;;;;5012174;28;20061;-65
2022/12/02 13:25:44;;;;;;;25.48;7.45;;;;;;;;;;4995854;28;20068;-71
2022/12/02 13:28:11;;;;;;;23.92;7.38;;;;;;;;;;5034708;28;20134;-67
2022/12/02 13:30:37;;;;;;;22.45;7.20;;;;;;;;;;5059378;28;20123;-67
2022/12/02 13:33:04;;;;;;;22.90;7.47;;;;;;;;;;5030844;28;20053;-65
2022/12/02 13:35:30;;;;;;;20.17;7.10;;;;;;;;;;5032071;28;20056;-66
2022/12/02 13:37:57;;;;;;;21.80;6.80;;;;;;;;;;5020319;28;20059;-66
2022/12/02 13:40:25;;;;;;;21.27;6.57;;;;;;;;;;5017554;28;20063;-69
2022/12/02 13:42:52;;;;;;;25.30;7.13;;;;;;;;;;5022330;28;20045;-66
2022/12/02 13:45:19;;;;;;;22.02;6.72;;;;;;;;;;4999385;28;20432;-70
2022/12/02 13:47:45;;;;;;;23.25;6.15;;;;;;;;;;5039145;28;20056;-71
2022/12/02 13:50:12;;;;;;;18.92;6.68;;;;;;;;;;5028924;28;20048;-70
2022/12/02 13:52:38;;;;;;;21.10;5.97;;;;;;;;;;5009126;28;20302;-63
2022/12/02 13:55:08;;;;;;;17.83;6.10;;;;;;;;;;5006907;28;20072;-73
2022/12/02 13:57:36;;;;;;;18.65;6.03;;;;;;;;;;4999748;28;20057;-73
2022/12/02 14:00:02;;;;;;;17.13;5.50;;;;;;;;;;4999799;28;20064;-69
2022/12/02 14:02:32;;;;;;;20.40;5.65;;;;;;;;;;4990742;28;20079;-67
2022/12/02 14:04:58;;;;;;;19.15;6.05;;;;;;;;;;4996280;28;20060;-66
2022/12/02 14:07:26;;;;;;;21.92;6.13;;;;;;;;;;5007550;28;20053;-73
2022/12/02 14:09:53;;;;;;;15.32;5.90;;;;;;;;;;5019243;28;20062;-66
2022/12/02 14:12:19;;;;;;;19.17;5.57;;;;;;;;;;5020520;28;20196;-67
2022/12/02 14:14:47;;;;;;;14.52;5.30;;;;;;;;;;4996595;28;20057;-66
2022/12/02 14:17:13;;;;;;;16.58;5.65;;;;;;;;;;5010331;28;20059;-67
2022/12/02 14:19:40;;;;;;;16.15;5.57;;;;;;;;;;5037041;28;20149;-70
2022/12/02 14:22:07;;;;;;;16.95;5.18;;;;;;;;;;5022820;28;20080;-69
2022/12/02 14:24:33;;;;;;;17.77;5.50;;;;;;;;;;5016382;28;20121;-69
2022/12/02 14:27:00;;;;;;;13.93;5.00;;;;;;;;;;5001104;28;20079;-67
2022/12/02 14:29:27;;;;;;;17.77;4.93;;;;;;;;;;5027720;28;20060;-70
2022/12/02 14:31:55;;;;;;;16.23;5.97;;;;;;;;;;5024356;28;20141;-65
2022/12/02 14:34:21;;;;;;;14.97;4.97;;;;;;;;;;5033670;28;20064;-69
2022/12/02 14:36:48;;;;;;;18.92;5.45;;;;;;;;;;5027880;28;20056;-67
2022/12/02 14:39:14;;;;;;;16.52;5.80;;;;;;;;;;5005438;28;20152;-67
2022/12/02 14:41:41;;;;;;;15.43;5.15;;;;;;;;;;5002844;28;20066;-65
2022/12/02 14:44:07;;;;;;;19.05;7.10;;;;;;;;;;5012835;28;20064;-66